createdAt,value
2022-12-18T00:00:19.613Z,-6.93
2022-12-18T00:01:19.977Z,-7.02
2022-12-18T00:02:19.468Z,-7.06
2022-12-18T00:03:19.659Z,-7.07
2022-12-18T00:04:22.617Z,-7.16
2022-12-18T00:05:19.571Z,-7.21
2022-12-18T00:06:19.962Z,-7.2
2022-12-18T00:07:19.583Z,-7.17
2022-12-18T00:08:19.625Z,-7.17
2022-12-18T00:09:19.659Z,-7.12
2022-12-18T00:10:19.462Z,-7.11
2022-12-18T00:11:19.905Z,-7.18
2022-12-18T00:12:19.699Z,-7.26
2022-12-18T00:13:19.584Z,-7.31
2022-12-18T00:14:19.539Z,-7.35
2022-12-18T00:15:22.553Z,-7.42
2022-12-18T00:16:19.891Z,-7.4
2022-12-18T00:17:19.615Z,-7.46
2022-12-18T00:18:20.705Z,-7.51
2022-12-18T00:19:19.461Z,-7.47
2022-12-18T00:20:19.957Z,-7.44
2022-12-18T00:21:19.872Z,-7.48
2022-12-18T00:22:19.581Z,-7.39
2022-12-18T00:23:19.460Z,-7.34
2022-12-18T00:24:19.553Z,-7.33
2022-12-18T00:25:19.599Z,-7.29
2022-12-18T00:26:22.570Z,-7.31
2022-12-18T00:27:19.577Z,-7.39
2022-12-18T00:28:19.484Z,-7.41
2022-12-18T00:29:19.465Z,-7.47
2022-12-18T00:30:19.515Z,-7.53
2022-12-18T00:31:19.874Z,-7.47
2022-12-18T00:32:19.568Z,-7.38
2022-12-18T00:33:19.574Z,-7.34
2022-12-18T00:34:19.471Z,-7.39
2022-12-18T00:35:19.832Z,-7.31
2022-12-18T00:36:19.828Z,-7.33
2022-12-18T00:37:20.371Z,-7.32
2022-12-18T00:38:19.463Z,-7.35
2022-12-18T00:39:19.460Z,-7.32
2022-12-18T00:40:19.587Z,-7.3
2022-12-18T00:41:19.838Z,-7.29
2022-12-18T00:42:22.527Z,-7.29
2022-12-18T00:43:19.530Z,-7.3
2022-12-18T00:44:19.584Z,-7.36
2022-12-18T00:45:19.463Z,-7.4
2022-12-18T00:46:19.711Z,-7.4
2022-12-18T00:47:19.628Z,-7.4
2022-12-18T00:48:19.576Z,-7.44
2022-12-18T00:49:19.895Z,-7.43
2022-12-18T00:50:19.898Z,-7.44
2022-12-18T00:51:19.650Z,-7.43
2022-12-18T00:52:19.466Z,-7.43
2022-12-18T00:53:22.628Z,-7.42
2022-12-18T00:54:19.654Z,-7.42
2022-12-18T00:55:19.606Z,-7.42
2022-12-18T00:56:19.645Z,-7.41
2022-12-18T00:57:19.607Z,-7.46
2022-12-18T00:58:19.625Z,-7.51
2022-12-18T00:59:19.507Z,-7.48
2022-12-18T01:00:19.468Z,-7.43
2022-12-18T01:01:19.820Z,-7.44
2022-12-18T01:02:19.651Z,-7.59
2022-12-18T01:03:19.611Z,-7.66
2022-12-18T01:04:22.498Z,-7.72
2022-12-18T01:05:19.837Z,-7.74
2022-12-18T01:06:19.831Z,-7.77
2022-12-18T01:07:19.512Z,-7.8
2022-12-18T01:08:19.549Z,-7.82
2022-12-18T01:09:19.558Z,-7.82
2022-12-18T01:10:19.551Z,-7.84
2022-12-18T01:11:20.071Z,-7.86
2022-12-18T01:12:19.544Z,-7.9
2022-12-18T01:13:19.605Z,-7.91
2022-12-18T01:14:19.560Z,-7.92
2022-12-18T01:15:22.614Z,-7.85
2022-12-18T01:16:19.855Z,-7.82
2022-12-18T01:17:19.566Z,-7.83
2022-12-18T01:18:19.470Z,-7.84
2022-12-18T01:19:19.707Z,-7.85
2022-12-18T01:20:19.995Z,-7.87
2022-12-18T01:21:19.608Z,-7.89
2022-12-18T01:22:19.473Z,-7.88
2022-12-18T01:23:19.577Z,-7.91
2022-12-18T01:24:19.472Z,-7.9
2022-12-18T01:25:19.530Z,-7.85
2022-12-18T01:26:25.667Z,-7.83
2022-12-18T01:27:19.520Z,-7.82
2022-12-18T01:28:19.637Z,-7.8
2022-12-18T01:29:19.559Z,-7.83
2022-12-18T01:30:19.460Z,-7.83
2022-12-18T01:31:19.724Z,-7.81
2022-12-18T01:32:19.529Z,-7.82
2022-12-18T01:33:19.575Z,-7.77
2022-12-18T01:34:19.465Z,-7.75
2022-12-18T01:35:19.899Z,-7.74
2022-12-18T01:36:19.661Z,-7.74
2022-12-18T01:37:19.456Z,-7.72
2022-12-18T01:38:19.590Z,-7.67
2022-12-18T01:39:19.545Z,-7.67
2022-12-18T01:40:19.545Z,-7.66
2022-12-18T01:41:19.898Z,-7.66
2022-12-18T01:42:22.582Z,-7.59
2022-12-18T01:43:19.565Z,-7.57
2022-12-18T01:44:19.480Z,-7.53
2022-12-18T01:45:19.469Z,-7.46
2022-12-18T01:46:19.527Z,-7.43
2022-12-18T01:47:19.533Z,-7.46
2022-12-18T01:48:22.481Z,-7.54
2022-12-18T01:49:19.453Z,-7.53
2022-12-18T01:50:19.951Z,-7.51
2022-12-18T01:51:19.648Z,-7.57
2022-12-18T01:52:19.553Z,-7.66
2022-12-18T01:53:19.554Z,-7.72
2022-12-18T01:54:19.498Z,-7.77
2022-12-18T01:55:19.583Z,-7.82
2022-12-18T01:56:19.895Z,-7.88
2022-12-18T01:57:19.561Z,-7.89
2022-12-18T01:58:19.613Z,-7.93
2022-12-18T01:59:22.487Z,-7.96
2022-12-18T02:00:19.562Z,-7.96
2022-12-18T02:01:19.752Z,-7.96
2022-12-18T02:02:19.698Z,-7.97
2022-12-18T02:03:19.528Z,-7.98
2022-12-18T02:04:19.468Z,-7.98
2022-12-18T02:05:19.828Z,-7.92
2022-12-18T02:06:19.898Z,-7.9
2022-12-18T02:07:19.691Z,-7.91
2022-12-18T02:08:19.544Z,-7.9
2022-12-18T02:09:19.499Z,-7.86
2022-12-18T02:10:22.456Z,-7.84
2022-12-18T02:11:19.530Z,-7.82
2022-12-18T02:12:19.472Z,-7.75
2022-12-18T02:13:19.521Z,-7.69
2022-12-18T02:14:19.602Z,-7.73
2022-12-18T02:15:19.549Z,-7.77
2022-12-18T02:16:19.936Z,-7.82
2022-12-18T02:17:19.591Z,-7.85
2022-12-18T02:18:19.685Z,-7.87
2022-12-18T02:19:19.534Z,-7.83
2022-12-18T02:20:19.896Z,-7.78
2022-12-18T02:21:25.504Z,-7.7
2022-12-18T02:22:19.589Z,-7.63
2022-12-18T02:23:19.619Z,-7.68
2022-12-18T02:24:19.679Z,-7.73
2022-12-18T02:25:19.548Z,-7.77
2022-12-18T02:26:19.899Z,-7.8
2022-12-18T02:27:19.531Z,-7.84
2022-12-18T02:28:19.461Z,-7.87
2022-12-18T02:29:19.463Z,-7.92
2022-12-18T02:30:19.472Z,-7.93
2022-12-18T02:31:20.062Z,-7.9
2022-12-18T02:32:22.451Z,-7.79
2022-12-18T02:33:19.578Z,-7.82
2022-12-18T02:34:19.545Z,-7.85
2022-12-18T02:35:19.900Z,-7.85
2022-12-18T02:36:19.835Z,-7.86
2022-12-18T02:37:19.459Z,-7.8
2022-12-18T02:38:19.588Z,-7.71
2022-12-18T02:39:19.489Z,-7.67
2022-12-18T02:40:19.580Z,-7.68
2022-12-18T02:41:19.838Z,-7.72
2022-12-18T02:42:19.472Z,-7.74
2022-12-18T02:43:22.609Z,-7.78
2022-12-18T02:44:19.678Z,-7.78
2022-12-18T02:45:19.465Z,-7.81
2022-12-18T02:46:19.609Z,-7.81
2022-12-18T02:47:19.629Z,-7.79
2022-12-18T02:48:19.668Z,-7.81
2022-12-18T02:49:19.466Z,-7.82
2022-12-18T02:50:19.827Z,-7.77
2022-12-18T02:51:19.601Z,-7.75
2022-12-18T02:52:19.454Z,-7.75
2022-12-18T02:53:19.525Z,-7.77
2022-12-18T02:54:22.489Z,-7.74
2022-12-18T02:55:19.654Z,-7.71
2022-12-18T02:56:19.910Z,-7.68
2022-12-18T02:57:19.547Z,-7.69
2022-12-18T02:58:19.466Z,-7.72
2022-12-18T02:59:19.529Z,-7.7
2022-12-18T03:00:19.453Z,-7.72
2022-12-18T03:01:20.077Z,-7.72
2022-12-18T03:02:19.810Z,-7.72
2022-12-18T03:03:19.729Z,-7.76
2022-12-18T03:04:19.579Z,-7.77
2022-12-18T03:05:25.504Z,-7.78
2022-12-18T03:06:19.540Z,-7.79
2022-12-18T03:07:19.549Z,-7.79
2022-12-18T03:08:19.602Z,-7.8
2022-12-18T03:09:19.590Z,-7.78
2022-12-18T03:10:19.546Z,-7.77
2022-12-18T03:11:19.465Z,-7.78
2022-12-18T03:12:19.565Z,-7.8
2022-12-18T03:13:19.466Z,-7.83
2022-12-18T03:14:19.464Z,-7.86
2022-12-18T03:15:19.576Z,-7.82
2022-12-18T03:16:25.637Z,-7.79
2022-12-18T03:17:19.667Z,-7.78
2022-12-18T03:18:19.457Z,-7.73
2022-12-18T03:19:19.661Z,-7.69
2022-12-18T03:20:19.837Z,-7.68
2022-12-18T03:21:19.469Z,-7.67
2022-12-18T03:22:19.468Z,-7.7
2022-12-18T03:23:21.479Z,-7.7
2022-12-18T03:24:19.467Z,-7.68
2022-12-18T03:25:19.664Z,-7.72
2022-12-18T03:26:19.846Z,-7.74
2022-12-18T03:27:22.752Z,-7.77
2022-12-18T03:28:19.633Z,-7.78
2022-12-18T03:29:19.651Z,-7.78
2022-12-18T03:30:19.432Z,-7.78
2022-12-18T03:31:19.628Z,-7.77
2022-12-18T03:32:19.554Z,-7.75
2022-12-18T03:33:19.459Z,-7.77
2022-12-18T03:34:19.616Z,-7.77
2022-12-18T03:35:19.828Z,-7.67
2022-12-18T03:36:19.939Z,-7.64
2022-12-18T03:37:19.679Z,-7.66
2022-12-18T03:38:19.463Z,-7.68
2022-12-18T03:39:19.599Z,-7.72
2022-12-18T03:40:19.573Z,-7.72
2022-12-18T03:41:19.831Z,-7.66
2022-12-18T03:42:19.546Z,-7.67
2022-12-18T03:43:22.517Z,-7.67
2022-12-18T03:44:19.679Z,-7.64
2022-12-18T03:45:19.452Z,-7.66
2022-12-18T03:46:19.924Z,-7.57
2022-12-18T03:47:19.692Z,-7.53
2022-12-18T03:48:19.724Z,-7.53
2022-12-18T03:49:19.592Z,-7.52
2022-12-18T03:50:19.904Z,-7.48
2022-12-18T03:51:19.841Z,-7.54
2022-12-18T03:52:19.655Z,-7.49
2022-12-18T03:53:19.591Z,-7.45
2022-12-18T03:54:22.531Z,-7.48
2022-12-18T03:55:19.644Z,-7.51
2022-12-18T03:56:19.841Z,-7.54
2022-12-18T03:57:19.640Z,-7.58
2022-12-18T03:58:19.589Z,-7.59
2022-12-18T03:59:19.554Z,-7.6
2022-12-18T04:00:19.466Z,-7.61
2022-12-18T04:01:19.706Z,-7.58
2022-12-18T04:02:19.622Z,-7.54
2022-12-18T04:03:22.682Z,-7.52
2022-12-18T04:04:19.596Z,-7.55
2022-12-18T04:05:25.591Z,-7.58
2022-12-18T04:06:19.938Z,-7.59
2022-12-18T04:07:19.635Z,-7.62
2022-12-18T04:08:19.543Z,-7.64
2022-12-18T04:09:19.660Z,-7.67
2022-12-18T04:10:19.541Z,-7.68
2022-12-18T04:11:19.840Z,-7.66
2022-12-18T04:12:19.605Z,-7.67
2022-12-18T04:13:19.532Z,-7.65
2022-12-18T04:14:19.589Z,-7.57
2022-12-18T04:15:19.683Z,-7.5
2022-12-18T04:16:25.498Z,-7.42
2022-12-18T04:17:19.641Z,-7.37
2022-12-18T04:18:19.473Z,-7.32
2022-12-18T04:19:19.602Z,-7.35
2022-12-18T04:20:19.837Z,-7.42
2022-12-18T04:21:19.824Z,-7.48
2022-12-18T04:22:19.459Z,-7.54
2022-12-18T04:23:19.595Z,-7.57
2022-12-18T04:24:19.638Z,-7.58
2022-12-18T04:25:19.503Z,-7.53
2022-12-18T04:26:19.904Z,-7.45
2022-12-18T04:27:22.613Z,-7.4
2022-12-18T04:28:19.518Z,-7.42
2022-12-18T04:29:19.542Z,-7.4
2022-12-18T04:30:19.616Z,-7.38
2022-12-18T04:31:19.940Z,-7.35
2022-12-18T04:32:19.631Z,-7.35
2022-12-18T04:33:19.462Z,-7.4
2022-12-18T04:34:19.476Z,-7.45
2022-12-18T04:35:19.902Z,-7.48
2022-12-18T04:36:19.829Z,-7.49
2022-12-18T04:37:19.676Z,-7.5
2022-12-18T04:38:22.621Z,-7.49
2022-12-18T04:39:19.570Z,-7.51
2022-12-18T04:40:19.603Z,-7.5
2022-12-18T04:41:19.827Z,-7.45
2022-12-18T04:42:19.586Z,-7.4
2022-12-18T04:43:19.684Z,-7.41
2022-12-18T04:44:19.571Z,-7.39
2022-12-18T04:45:19.452Z,-7.37
2022-12-18T04:46:19.644Z,-7.3
2022-12-18T04:47:19.707Z,-7.26
2022-12-18T04:48:19.678Z,-7.22
2022-12-18T04:49:22.487Z,-7.2
2022-12-18T04:50:19.834Z,-7.26
2022-12-18T04:51:25.952Z,-7.3
2022-12-18T04:52:19.674Z,-7.35
2022-12-18T04:53:19.547Z,-7.37
2022-12-18T04:54:19.478Z,-7.32
2022-12-18T04:55:19.546Z,-7.33
2022-12-18T04:56:19.903Z,-7.38
2022-12-18T04:57:19.628Z,-7.41
2022-12-18T04:58:19.580Z,-7.43
2022-12-18T04:59:19.653Z,-7.45
2022-12-18T05:00:22.493Z,-7.45
2022-12-18T05:01:19.690Z,-7.47
2022-12-18T05:02:19.675Z,-7.48
2022-12-18T05:03:19.585Z,-7.49
2022-12-18T05:04:19.558Z,-7.48
2022-12-18T05:05:19.909Z,-7.42
2022-12-18T05:06:19.449Z,-7.37
2022-12-18T05:07:19.459Z,-7.32
2022-12-18T05:08:19.454Z,-7.26
2022-12-18T05:09:19.589Z,-7.22
2022-12-18T05:10:19.511Z,-7.26
2022-12-18T05:11:25.877Z,-7.26
2022-12-18T05:12:19.556Z,-7.23
2022-12-18T05:13:19.551Z,-7.21
2022-12-18T05:14:19.559Z,-7.17
2022-12-18T05:15:19.464Z,-7.14
2022-12-18T05:16:19.676Z,-7.08
2022-12-18T05:17:19.496Z,-7.03
2022-12-18T05:18:19.577Z,-7.01
2022-12-18T05:19:19.555Z,-7
2022-12-18T05:20:19.904Z,-6.98
2022-12-18T05:21:19.840Z,-6.95
2022-12-18T05:22:22.461Z,-6.95
2022-12-18T05:23:19.567Z,-6.93
2022-12-18T05:24:19.474Z,-6.94
2022-12-18T05:25:19.560Z,-6.92
2022-12-18T05:26:19.831Z,-6.9
2022-12-18T05:27:19.573Z,-6.9
2022-12-18T05:28:19.466Z,-6.89
2022-12-18T05:29:19.463Z,-6.89
2022-12-18T05:30:19.452Z,-6.87
2022-12-18T05:31:19.909Z,-6.87
2022-12-18T05:32:19.625Z,-6.88
2022-12-18T05:33:22.603Z,-6.92
2022-12-18T05:34:19.544Z,-6.94
2022-12-18T05:35:19.901Z,-6.95
2022-12-18T05:36:19.915Z,-6.95
2022-12-18T05:37:19.662Z,-6.98
2022-12-18T05:38:19.546Z,-7.01
2022-12-18T05:39:19.475Z,-7.02
2022-12-18T05:40:19.574Z,-7.02
2022-12-18T05:41:19.517Z,-6.95
2022-12-18T05:42:19.622Z,-6.93
2022-12-18T05:43:21.419Z,-6.93
2022-12-18T05:44:19.607Z,-6.93
2022-12-18T05:45:19.469Z,-6.91
2022-12-18T05:46:19.672Z,-6.92
2022-12-18T05:47:19.530Z,-6.92
2022-12-18T05:48:19.664Z,-6.84
2022-12-18T05:49:22.584Z,-6.79
2022-12-18T05:50:19.832Z,-6.75
2022-12-18T05:51:19.830Z,-6.72
2022-12-18T05:52:19.457Z,-6.72
2022-12-18T05:53:19.462Z,-6.68
2022-12-18T05:54:19.469Z,-6.65
2022-12-18T05:55:19.527Z,-6.61
2022-12-18T05:56:19.568Z,-6.63
2022-12-18T05:57:19.462Z,-6.68
2022-12-18T05:58:19.459Z,-6.68
2022-12-18T05:59:19.606Z,-6.66
2022-12-18T06:00:19.592Z,-6.66
2022-12-18T06:01:19.636Z,-6.65
2022-12-18T06:02:19.670Z,-6.66
2022-12-18T06:03:19.569Z,-6.62
2022-12-18T06:04:19.573Z,-6.62
2022-12-18T06:05:22.614Z,-6.65
2022-12-18T06:06:19.579Z,-6.66
2022-12-18T06:07:19.466Z,-6.67
2022-12-18T06:08:19.455Z,-6.64
2022-12-18T06:09:19.455Z,-6.63
2022-12-18T06:10:19.439Z,-6.61
2022-12-18T06:11:19.517Z,-6.6
2022-12-18T06:12:19.475Z,-6.6
2022-12-18T06:13:19.565Z,-6.58
2022-12-18T06:14:19.572Z,-6.6
2022-12-18T06:15:19.671Z,-6.6
2022-12-18T06:16:19.553Z,-6.6
2022-12-18T06:17:19.597Z,-6.54
2022-12-18T06:18:19.575Z,-6.6
2022-12-18T06:19:19.489Z,-6.6
2022-12-18T06:20:19.621Z,-6.59
2022-12-18T06:21:22.581Z,-6.6
2022-12-18T06:22:19.606Z,-6.66
2022-12-18T06:23:19.525Z,-6.66
2022-12-18T06:24:19.475Z,-6.69
2022-12-18T06:25:19.586Z,-6.79
2022-12-18T06:26:24.655Z,-6.75
2022-12-18T06:27:19.687Z,-6.73
2022-12-18T06:28:19.446Z,-6.78
2022-12-18T06:29:19.485Z,-6.79
2022-12-18T06:30:19.555Z,-6.8
2022-12-18T06:31:19.727Z,-6.82
2022-12-18T06:32:19.495Z,-6.83
2022-12-18T06:33:19.487Z,-6.85
2022-12-18T06:34:19.686Z,-6.87
2022-12-18T06:35:19.592Z,-6.87
2022-12-18T06:36:19.585Z,-6.88
2022-12-18T06:37:22.568Z,-6.88
2022-12-18T06:38:19.688Z,-6.89
2022-12-18T06:39:19.542Z,-6.87
2022-12-18T06:40:19.489Z,-6.87
2022-12-18T06:41:19.440Z,-6.86
2022-12-18T06:42:19.474Z,-6.85
2022-12-18T06:43:19.563Z,-6.88
2022-12-18T06:44:19.475Z,-6.89
2022-12-18T06:45:19.569Z,-6.95
2022-12-18T06:46:19.535Z,-7
2022-12-18T06:47:19.565Z,-7.07
2022-12-18T06:48:22.564Z,-7.1
2022-12-18T06:49:19.682Z,-7.11
2022-12-18T06:50:19.642Z,-7.11
2022-12-18T06:51:19.563Z,-7.12
2022-12-18T06:52:19.664Z,-7.12
2022-12-18T06:53:19.537Z,-7.16
2022-12-18T06:54:19.466Z,-7.16
2022-12-18T06:55:19.557Z,-7.18
2022-12-18T06:56:19.466Z,-7.17
2022-12-18T06:57:19.452Z,-7.17
2022-12-18T06:58:19.458Z,-7.17
2022-12-18T06:59:22.616Z,-7.17
2022-12-18T07:00:19.677Z,-7.19
2022-12-18T07:01:19.682Z,-7.2
2022-12-18T07:02:19.763Z,-7.22
2022-12-18T07:03:19.645Z,-7.2
2022-12-18T07:04:19.587Z,-7.18
2022-12-18T07:05:19.824Z,-7.17
2022-12-18T07:06:19.591Z,-7.16
2022-12-18T07:07:19.705Z,-7.15
2022-12-18T07:08:19.533Z,-7.15
2022-12-18T07:09:19.468Z,-7.13
2022-12-18T07:10:19.568Z,-7.07
2022-12-18T07:11:19.830Z,-7.04
2022-12-18T07:12:19.487Z,-7.03
2022-12-18T07:13:19.609Z,-7.01
2022-12-18T07:14:19.516Z,-7.03
2022-12-18T07:15:55.306Z,-7.05
2022-12-18T07:16:24.716Z,-7.1
2022-12-18T07:17:19.450Z,-7.07
2022-12-18T07:18:19.547Z,-7.03
2022-12-18T07:19:19.539Z,-7.03
2022-12-18T07:20:19.892Z,-7.04
2022-12-18T07:21:22.631Z,-7.06
2022-12-18T07:22:19.538Z,-7.08
2022-12-18T07:23:19.579Z,-7.09
2022-12-18T07:24:19.469Z,-7.09
2022-12-18T07:25:19.569Z,-7.09
2022-12-18T07:26:19.666Z,-7.08
2022-12-18T07:27:19.583Z,-7.05
2022-12-18T07:28:19.605Z,-6.99
2022-12-18T07:29:19.571Z,-6.94
2022-12-18T07:30:19.605Z,-6.93
2022-12-18T07:31:19.713Z,-6.91
2022-12-18T07:32:22.616Z,-6.91
2022-12-18T07:33:19.673Z,-6.91
2022-12-18T07:34:19.628Z,-6.89
2022-12-18T07:35:24.783Z,-6.86
2022-12-18T07:36:19.968Z,-6.79
2022-12-18T07:37:19.581Z,-6.73
2022-12-18T07:38:19.553Z,-6.69
2022-12-18T07:39:19.578Z,-6.66
2022-12-18T07:40:19.635Z,-6.64
2022-12-18T07:41:19.905Z,-6.62
2022-12-18T07:42:19.652Z,-6.62
2022-12-18T07:43:22.516Z,-6.62
2022-12-18T07:44:19.650Z,-6.63
2022-12-18T07:45:19.452Z,-6.63
2022-12-18T07:46:19.667Z,-6.64
2022-12-18T07:47:19.651Z,-6.63
2022-12-18T07:48:19.506Z,-6.64
2022-12-18T07:49:19.544Z,-6.68
2022-12-18T07:50:19.597Z,-6.73
2022-12-18T07:51:19.655Z,-6.76
2022-12-18T07:52:25.596Z,-6.76
2022-12-18T07:53:19.569Z,-6.76
2022-12-18T07:54:22.509Z,-6.77
2022-12-18T07:55:19.450Z,-6.79
2022-12-18T07:56:28.090Z,-6.79
2022-12-18T07:57:48.461Z,-6.77
2022-12-18T07:58:19.458Z,-6.73
2022-12-18T07:59:19.680Z,-6.71
2022-12-18T08:00:19.467Z,-6.68
2022-12-18T08:01:19.711Z,-6.69
2022-12-18T08:02:19.730Z,-6.73
2022-12-18T08:03:19.748Z,-6.78
2022-12-18T08:04:19.529Z,-6.79
2022-12-18T08:05:25.606Z,-6.81
2022-12-18T08:06:22.473Z,-6.84
2022-12-18T08:07:19.572Z,-6.82
2022-12-18T08:08:19.707Z,-6.79
2022-12-18T08:09:19.483Z,-6.77
2022-12-18T08:10:19.689Z,-6.72
2022-12-18T08:11:19.910Z,-6.65
2022-12-18T08:12:19.532Z,-6.62
2022-12-18T08:13:19.462Z,-6.59
2022-12-18T08:14:19.631Z,-6.53
2022-12-18T08:15:19.621Z,-6.51
2022-12-18T08:16:20.039Z,-6.49
2022-12-18T08:17:19.472Z,-6.47
2022-12-18T08:18:19.553Z,-6.45
2022-12-18T08:19:19.474Z,-6.39
2022-12-18T08:20:19.896Z,-6.36
2022-12-18T08:21:22.530Z,-6.27
2022-12-18T08:22:19.532Z,-6.23
2022-12-18T08:23:19.572Z,-6.2
2022-12-18T08:24:19.468Z,-6.21
2022-12-18T08:25:19.452Z,-6.15
2022-12-18T08:26:19.502Z,-6.13
2022-12-18T08:27:30.324Z,-6.16
2022-12-18T08:28:19.586Z,-6.17
2022-12-18T08:29:21.699Z,-6.13
2022-12-18T08:30:19.465Z,-6.11
2022-12-18T08:31:19.755Z,-6.09
2022-12-18T08:32:22.543Z,-6.1
2022-12-18T08:33:19.557Z,-6.16
2022-12-18T08:34:19.611Z,-6.18
2022-12-18T08:35:19.834Z,-6.17
2022-12-18T08:36:19.620Z,-6.15
2022-12-18T08:37:19.590Z,-6.23
2022-12-18T08:38:19.568Z,-6.23
2022-12-18T08:39:19.612Z,-6.17
2022-12-18T08:40:19.688Z,-6.12
2022-12-18T08:41:19.843Z,-6.06
2022-12-18T08:42:19.564Z,-6.03
2022-12-18T08:43:22.468Z,-6
2022-12-18T08:44:19.570Z,-5.94
2022-12-18T08:45:19.597Z,-5.87
2022-12-18T08:46:19.716Z,-5.83
2022-12-18T08:47:19.447Z,-5.8
2022-12-18T08:48:22.139Z,-5.75
2022-12-18T08:49:19.578Z,-5.73
2022-12-18T08:50:19.900Z,-5.71
2022-12-18T08:51:19.842Z,-5.72
2022-12-18T08:52:19.557Z,-5.73
2022-12-18T08:53:19.493Z,-5.76
2022-12-18T08:54:22.551Z,-5.77
2022-12-18T08:55:19.641Z,-5.79
2022-12-18T08:56:19.832Z,-5.8
2022-12-18T08:57:19.570Z,-5.82
2022-12-18T08:58:19.573Z,-5.83
2022-12-18T08:59:20.137Z,-5.94
2022-12-18T09:00:19.567Z,-5.99
2022-12-18T09:01:20.036Z,-5.96
2022-12-18T09:02:19.859Z,-5.93
2022-12-18T09:03:19.493Z,-5.94
2022-12-18T09:04:19.545Z,-5.94
2022-12-18T09:05:22.605Z,-6.02
2022-12-18T09:06:19.571Z,-6.06
2022-12-18T09:07:19.594Z,-6.05
2022-12-18T09:08:19.675Z,-6.01
2022-12-18T09:09:19.456Z,-6
2022-12-18T09:10:19.501Z,-5.95
2022-12-18T09:11:19.448Z,-5.86
2022-12-18T09:12:19.494Z,-5.85
2022-12-18T09:13:19.687Z,-5.87
2022-12-18T09:14:19.664Z,-5.78
2022-12-18T09:15:19.488Z,-5.66
2022-12-18T09:16:31.504Z,-5.55
2022-12-18T09:17:19.612Z,-5.49
2022-12-18T09:18:19.553Z,-5.49
2022-12-18T09:19:19.629Z,-5.48
2022-12-18T09:20:19.907Z,-5.47
2022-12-18T09:21:19.831Z,-5.43
2022-12-18T09:22:19.458Z,-5.33
2022-12-18T09:23:19.670Z,-5.28
2022-12-18T09:24:19.502Z,-5.24
2022-12-18T09:25:19.563Z,-5.2
2022-12-18T09:26:19.844Z,-5.19
2022-12-18T09:27:22.546Z,-5.18
2022-12-18T09:28:19.539Z,-5.18
2022-12-18T09:29:19.581Z,-5.16
2022-12-18T09:30:19.688Z,-5.17
2022-12-18T09:31:19.627Z,-5.24
2022-12-18T09:32:22.514Z,-5.28
2022-12-18T09:33:19.602Z,-5.28
2022-12-18T09:34:19.486Z,-5.29
2022-12-18T09:35:19.498Z,-5.23
2022-12-18T09:36:19.912Z,-5.17
2022-12-18T09:37:19.527Z,-5.06
2022-12-18T09:38:22.649Z,-4.93
2022-12-18T09:39:21.856Z,-4.82
2022-12-18T09:40:19.456Z,-4.73
2022-12-18T09:41:19.444Z,-4.67
2022-12-18T09:42:19.612Z,-4.6
2022-12-18T09:43:19.701Z,-4.52
2022-12-18T09:44:19.722Z,-4.48
2022-12-18T09:45:19.472Z,-4.42
2022-12-18T09:46:20.027Z,-4.37
2022-12-18T09:47:19.650Z,-4.32
2022-12-18T09:48:19.459Z,-4.36
2022-12-18T09:49:22.498Z,-4.45
2022-12-18T09:50:19.834Z,-4.41
2022-12-18T09:51:19.557Z,-4.31
2022-12-18T09:52:19.487Z,-4.23
2022-12-18T09:53:19.487Z,-4.1
2022-12-18T09:54:19.459Z,-4.03
2022-12-18T09:55:19.514Z,-3.98
2022-12-18T09:56:19.910Z,-3.98
2022-12-18T09:57:19.670Z,-3.97
2022-12-18T09:58:19.686Z,-3.97
2022-12-18T09:59:19.531Z,-3.98
2022-12-18T10:00:22.519Z,-3.94
2022-12-18T10:01:19.892Z,-3.89
2022-12-18T10:02:19.711Z,-3.89
2022-12-18T10:03:19.588Z,-3.93
2022-12-18T10:04:19.507Z,-3.88
2022-12-18T10:05:19.912Z,-3.83
2022-12-18T10:06:19.834Z,-3.72
2022-12-18T10:07:19.463Z,-3.67
2022-12-18T10:08:19.600Z,-3.67
2022-12-18T10:09:19.661Z,-3.69
2022-12-18T10:10:19.610Z,-3.76
2022-12-18T10:11:22.755Z,-3.78
2022-12-18T10:12:19.554Z,-3.73
2022-12-18T10:13:19.477Z,-3.61
2022-12-18T10:14:19.694Z,-3.51
2022-12-18T10:15:19.475Z,-3.57
2022-12-18T10:16:19.908Z,-3.59
2022-12-18T10:17:19.572Z,-3.58
2022-12-18T10:18:22.073Z,-3.57
2022-12-18T10:19:19.571Z,-3.53
2022-12-18T10:20:19.993Z,-3.44
2022-12-18T10:21:19.830Z,-3.47
2022-12-18T10:22:22.850Z,-3.47
2022-12-18T10:23:19.684Z,-3.52
2022-12-18T10:24:19.472Z,-3.52
2022-12-18T10:25:19.628Z,-3.5
2022-12-18T10:26:19.830Z,-3.5
2022-12-18T10:27:19.455Z,-3.45
2022-12-18T10:28:19.551Z,-3.48
2022-12-18T10:29:19.471Z,-3.51
2022-12-18T10:30:19.596Z,-3.46
2022-12-18T10:31:19.901Z,-3.4
2022-12-18T10:32:19.471Z,-3.33
2022-12-18T10:33:22.513Z,-3.41
2022-12-18T10:34:19.679Z,-3.49
2022-12-18T10:35:19.947Z,-3.55
2022-12-18T10:36:19.830Z,-3.53
2022-12-18T10:37:19.634Z,-3.46
2022-12-18T10:38:19.569Z,-3.42
2022-12-18T10:39:19.609Z,-3.24
2022-12-18T10:40:22.651Z,-3.13
2022-12-18T10:41:19.908Z,-3.06
2022-12-18T10:42:19.569Z,-3.02
2022-12-18T10:43:19.590Z,-3
2022-12-18T10:44:22.477Z,-3.01
2022-12-18T10:45:19.551Z,-3.04
2022-12-18T10:46:19.602Z,-3.07
2022-12-18T10:47:19.574Z,-3.09
2022-12-18T10:48:19.582Z,-3.13
2022-12-18T10:49:19.457Z,-3.21
2022-12-18T10:50:19.712Z,-3.12
2022-12-18T10:51:19.893Z,-3.06
2022-12-18T10:52:19.489Z,-2.9
2022-12-18T10:53:19.669Z,-2.85
2022-12-18T10:54:19.530Z,-2.7
2022-12-18T10:55:23.293Z,-2.67
2022-12-18T10:56:19.834Z,-2.58
2022-12-18T10:57:19.631Z,-2.6
2022-12-18T10:58:24.957Z,-2.66
2022-12-18T10:59:19.560Z,-2.68
2022-12-18T11:00:19.540Z,-2.65
2022-12-18T11:01:19.627Z,-2.57
2022-12-18T11:02:19.584Z,-2.59
2022-12-18T11:03:19.786Z,-2.65
2022-12-18T11:04:19.587Z,-2.9
2022-12-18T11:05:19.932Z,-2.91
2022-12-18T11:06:25.504Z,-2.99
2022-12-18T11:07:19.539Z,-2.86
2022-12-18T11:08:19.459Z,-2.91
2022-12-18T11:09:19.457Z,-2.95
2022-12-18T11:10:19.577Z,-2.93
2022-12-18T11:11:19.834Z,-2.89
2022-12-18T11:12:19.541Z,-2.78
2022-12-18T11:13:19.572Z,-2.59
2022-12-18T11:14:19.584Z,-2.4
2022-12-18T11:15:19.534Z,-2.29
2022-12-18T11:16:20.019Z,-2.1
2022-12-18T11:17:25.366Z,-2.02
2022-12-18T11:18:19.581Z,-2.04
2022-12-18T11:19:19.583Z,-2.24
2022-12-18T11:20:19.503Z,-2.3
2022-12-18T11:21:20.102Z,-2.49
2022-12-18T11:22:19.535Z,-2.52
2022-12-18T11:23:19.564Z,-2.56
2022-12-18T11:24:19.604Z,-2.66
2022-12-18T11:25:35.147Z,-2.59
2022-12-18T11:26:19.499Z,-2.57
2022-12-18T11:27:19.992Z,-2.41
2022-12-18T11:28:22.493Z,-2.5
2022-12-18T11:29:19.533Z,-2.49
2022-12-18T11:30:19.551Z,-2.44
2022-12-18T11:31:19.941Z,-2.41
2022-12-18T11:32:19.529Z,-2.31
2022-12-18T11:33:19.493Z,-2.15
2022-12-18T11:34:29.115Z,-2.16
2022-12-18T11:35:19.904Z,-2.16
2022-12-18T11:36:19.831Z,-2.07
2022-12-18T11:37:19.638Z,-1.96
2022-12-18T11:38:19.479Z,-1.91
2022-12-18T11:39:22.518Z,-1.92
2022-12-18T11:40:19.640Z,-1.9
2022-12-18T11:41:19.461Z,-2.11
2022-12-18T11:42:19.473Z,-2.17
2022-12-18T11:43:19.535Z,-2.11
2022-12-18T11:44:19.591Z,-1.98
2022-12-18T11:45:19.561Z,-1.96
2022-12-18T11:46:20.122Z,-2.06
2022-12-18T11:47:19.657Z,-2.03
2022-12-18T11:48:19.557Z,-1.93
2022-12-18T11:49:19.543Z,-1.87
2022-12-18T11:50:22.949Z,-1.99
2022-12-18T11:51:19.698Z,-1.98
2022-12-18T11:52:19.560Z,-1.9
2022-12-18T11:53:19.443Z,-1.86
2022-12-18T11:54:19.482Z,-1.77
2022-12-18T11:55:19.486Z,-1.88
2022-12-18T11:56:19.834Z,-1.95
2022-12-18T11:57:19.559Z,-2.19
2022-12-18T11:58:19.538Z,-2.32
2022-12-18T11:59:19.863Z,-2.26
2022-12-18T12:00:19.598Z,-2.09
2022-12-18T12:01:19.668Z,-2.01
2022-12-18T12:02:19.796Z,-2.12
2022-12-18T12:03:19.606Z,-2.18
2022-12-18T12:04:19.536Z,-2.26
2022-12-18T12:05:19.895Z,-2.3
2022-12-18T12:06:25.570Z,-2.26
2022-12-18T12:07:19.639Z,-2.22
2022-12-18T12:08:19.634Z,-2.22
2022-12-18T12:09:19.529Z,-2.21
2022-12-18T12:10:19.554Z,-2.25
2022-12-18T12:11:19.580Z,-2.23
2022-12-18T12:12:19.651Z,-2.13
2022-12-18T12:13:19.471Z,-1.96
2022-12-18T12:14:19.573Z,-1.91
2022-12-18T12:15:19.595Z,-1.81
2022-12-18T12:16:20.061Z,-1.75
2022-12-18T12:17:19.469Z,-1.79
2022-12-18T12:18:19.579Z,-1.85
2022-12-18T12:19:19.580Z,-1.87
2022-12-18T12:20:19.615Z,-1.85
2022-12-18T12:21:19.834Z,-1.85
2022-12-18T12:22:22.478Z,-1.74
2022-12-18T12:23:23.468Z,-1.63
2022-12-18T12:24:19.472Z,-1.52
2022-12-18T12:25:19.558Z,-1.47
2022-12-18T12:26:19.486Z,-1.5
2022-12-18T12:27:19.602Z,-1.5
2022-12-18T12:28:19.589Z,-1.43
2022-12-18T12:29:21.316Z,-1.46
2022-12-18T12:30:19.573Z,-1.46
2022-12-18T12:31:19.673Z,-1.5
2022-12-18T12:32:19.595Z,-1.58
2022-12-18T12:33:22.534Z,-1.74
2022-12-18T12:34:19.625Z,-1.82
2022-12-18T12:35:19.591Z,-1.8
2022-12-18T12:36:19.694Z,-1.7
2022-12-18T12:37:19.564Z,-1.58
2022-12-18T12:38:19.451Z,-1.5
2022-12-18T12:39:19.569Z,-1.57
2022-12-18T12:40:49.301Z,-1.7
2022-12-18T12:41:19.569Z,-1.83
2022-12-18T12:42:19.469Z,-1.92
2022-12-18T12:43:19.553Z,-1.92
2022-12-18T12:44:22.908Z,-1.92
2022-12-18T12:45:19.585Z,-1.94
2022-12-18T12:46:19.774Z,-1.88
2022-12-18T12:47:19.682Z,-1.86
2022-12-18T12:48:19.563Z,-1.88
2022-12-18T12:49:19.603Z,-2.08
2022-12-18T12:50:19.944Z,-2.27
2022-12-18T12:51:19.626Z,-2.35
2022-12-18T12:52:19.515Z,-2.34
2022-12-18T12:53:19.604Z,-2.26
2022-12-18T12:54:19.604Z,-2.32
2022-12-18T12:55:22.522Z,-2.36